Private Wetterstation Sandau
Wetterdaten: Dezember 2012
Datum Temp. A. Feuchte A. Luftdruck Regen Wind Richtung Taupunkt Windchill
01.12.2012 1,6 C 90 % 1011,4 hPa 1,0 l/m 7,8 km/h (2 Bft) S-SW 0,2 C 0,0 C
02.12.2012 0,5 C 90 % 1010,2 hPa 0,0 l/m 5,4 km/h (1 Bft) SO -0,9 C -0,9 C
03.12.2012 0,4 C 87 % 1007,9 hPa 1,0 l/m 8,5 km/h (2 Bft) S-SO -1,6 C -2,1 C
04.12.2012 3,7 C 90 % 992,8 hPa 2,1 l/m 10,3 km/h (2 Bft) W-SW 2,1 C 1,1 C
05.12.2012 -2,7 C 83 % 1001,8 hPa 0,0 l/m 4,6 km/h (1 Bft) W-NW -5,2 C -3,5 C
06.12.2012 -4,0 C 87 % 1010,8 hPa 0,0 l/m 3,6 km/h (1 Bft) S-SW -5,9 C -4,9 C
07.12.2012 -6,5 C 87 % 1012,0 hPa 0,5 l/m 1,8 km/h (1 Bft) O-SO -8,3 C -6,5 C
08.12.2012 -5,3 C 88 % 1021,9 hPa 0,0 l/m 1,6 km/h (1 Bft) W -6,9 C -5,3 C
09.12.2012 0,1 C 92 % 1006,1 hPa 0,0 l/m 7,6 km/h (2 Bft) SW -1,1 C -2,4 C
10.12.2012 -0,7 C 91 % 1009,2 hPa 0,0 l/m 2,8 km/h (1 Bft) N-NO -2,0 C -1,5 C
11.12.2012 -2,0 C 85 % 1020,7 hPa 0,0 l/m 9,4 km/h (2 Bft) N-NO -4,2 C -5,1 C
12.12.2012 -3,7 C 90 % 1020,0 hPa 0,0 l/m 2,6 km/h (1 Bft) N-NO -5,1 C -3,7 C
13.12.2012 -3,1 C 90 % 1014,4 hPa 0,0 l/m 6,1 km/h (2 Bft) N-NO -4,6 C -4,9 C
14.12.2012 -1,1 C 87 % 1005,2 hPa 0,0 l/m 9,1 km/h (2 Bft) N-NO -3,0 C -4,2 C
15.12.2012 2,7 C 93 % 1003,0 hPa 1,0 l/m 3,9 km/h (1 Bft) S-SW 1,7 C 2,1 C
16.12.2012 3,6 C 94 % 1005,4 hPa 2,1 l/m 6,7 km/h (2 Bft) S-SW 2,7 C 1,9 C
17.12.2012 2,8 C 95 % 1007,0 hPa 0,5 l/m 1,7 km/h (1 Bft) O-SO 2,0 C 2,8 C
18.12.2012 2,7 C 95 % 1015,3 hPa 2,6 l/m 0,0 km/h (0 Bft) O-SO 1,9 C 2,7 C
19.12.2012 1,9 C 95 % 1025,9 hPa 0,0 l/m 2,5 km/h (1 Bft) O-NO 1,1 C 1,9 C
20.12.2012 1,2 C 92 % 1021,3 hPa 0,0 l/m 8,6 km/h (2 Bft) O-SO 0,1 C -1,3 C
21.12.2012 -2,6 C 85 % 1018,5 hPa 0,0 l/m 5,3 km/h (1 Bft) O-NO -4,8 C -4,1 C
22.12.2012 -2,3 C 90 % 1016,9 hPa 0,0 l/m 10,3 km/h (2 Bft) O-NO -3,7 C -5,7 C
23.12.2012 0,3 C 94 % 1006,2 hPa 1,0 l/m 1,5 km/h (1 Bft) O-NO -0,6 C -0,2 C
24.12.2012 5,8 C 96 % 1004,1 hPa 4,7 l/m 6,5 km/h (2 Bft) W-SW 5,2 C 4,7 C
25.12.2012 7,3 C 87 % 999,5 hPa 0,0 l/m 9,6 km/h (2 Bft) W-SW 5,2 C 5,5 C
26.12.2012 5,5 C 86 % 1005,9 hPa 0,0 l/m 12,1 km/h (2 Bft) W-SW 3,3 C 2,9 C
27.12.2012 6,1 C 84 % 1003,7 hPa 5,2 l/m 9,7 km/h (2 Bft) W-SW 3,6 C 4,3 C
28.12.2012 -0,2 C 83 % 1025,7 hPa 0,0 l/m 9,0 km/h (2 Bft) S-SO -2,7 C -2,7 C
29.12.2012 6,6 C 85 % 1014,8 hPa 0,0 l/m 12,3 km/h (3 Bft) S-SW 4,3 C 4,2 C
30.12.2012 5,8 C 82 % 1012,6 hPa 0,0 l/m 9,0 km/h (2 Bft) SW 2,9 C 3,9 C
31.12.2012 7,7 C 77 % 1009,6 hPa 0,0 l/m 18,3 km/h (3 Bft) W-SW 4,0 C 4,7 C
Min-Datum 08.12.12 05.12.12 04.12.12 11 Tage 01.12.12 - 08.12.12 07.12.12
Min-Zeit 05:36 13:26 19:41 - 00:21 - 05:36 22:21
Minimum -11,1 C 71 % 991,0 hPa - 0,0 km/h (0 Bft) - -12,7 C -12,8 C
Max-Datum 25.12.12 18.12.12 28.12.12 27.12.12 27.12.12 - 25.12.12 25.12.12
Max-Zeit 12:01 06:46 12:46 08:21 13:01 - 00:16 12:01
Maximum 10,8 C 96 % 1028,7 hPa 5,2 l/m 40,0 km/h
W-SW (6 Bft)
- 7,5 C 10,8 C
Durchschnitt 1,0 C 89 % 1011,0 hPa #21,8 l/m 6,7 km/h (2 Bft) N-NO -0,7 C -0,5 C

Durchschnitt Minimum Temp.-1,1 C
Durchschnitt Maximum Temp.2,9 C
(c) by David Heller